Valladolid

latitud = 41° 39' 8''N | longitud = 004° 43' 24''W
690 metros sobre el nivel del mar | datos mensuales

Fecha, hora, temperatura, viento dirección y velocidad, humedad y presión.

  • 22-11-2017 09:00:00 | -1.80°C | Nordeste |2.00 km/h | 79.00% | 931.00 hPa
  • 22-11-2017 08:00:00 | -1.80°C | Nordeste |2.00 km/h | 78.00% | 930.80 hPa
  • 22-11-2017 07:00:00 | -1.40°C | Nordeste |3.00 km/h | 77.00% | 931.00 hPa
  • 22-11-2017 06:00:00 | -1.00°C | Norte |3.00 km/h | 77.00% | 931.20 hPa
  • 22-11-2017 05:00:00 | -0.80°C | Nordeste |3.00 km/h | 76.00% | 931.40 hPa
  • 22-11-2017 04:00:00 | -0.20°C | Nordeste |3.00 km/h | 74.00% | 932.00 hPa
  • 22-11-2017 03:00:00 | 0.60°C | Norte |2.00 km/h | 71.00% | 932.50 hPa
  • 22-11-2017 02:00:00 | 1.40°C | Este |3.00 km/h | 66.00% | 933.00 hPa
  • 22-11-2017 01:00:00 | 2.20°C | Este |3.00 km/h | 65.00% | 933.50 hPa
  • 22-11-2017 00:00:00 | 3.20°C | Nordeste |3.00 km/h | 66.00% | 933.90 hPa
  • 21-11-2017 23:00:00 | 4.40°C | Este |2.00 km/h | 64.00% | 934.00 hPa
  • 21-11-2017 22:00:00 | 5.40°C | Oeste |2.00 km/h | 58.00% | 934.00 hPa
  • 21-11-2017 21:00:00 | 6.50°C | Sudeste |3.00 km/h | 55.00% | 933.90 hPa
  • 21-11-2017 20:00:00 | 7.80°C | Este |3.00 km/h | 50.00% | 934.20 hPa
  • 21-11-2017 19:00:00 | 9.20°C | Oeste |5.00 km/h | 47.00% | 934.30 hPa
  • 21-11-2017 18:00:00 | 11.00°C | Sur |3.00 km/h | 45.00% | 934.50 hPa
  • 21-11-2017 17:00:00 | 13.60°C | Sur |3.00 km/h | 36.00% | 934.60 hPa
  • 21-11-2017 16:00:00 | 15.80°C | Oeste |2.00 km/h | 31.00% | 934.60 hPa
  • 21-11-2017 15:00:00 | 15.60°C | Sudoeste |3.00 km/h | 32.00% | 935.00 hPa
  • 21-11-2017 14:00:00 | 13.50°C | Sudeste |3.00 km/h | 34.00% | 935.70 hPa
  • 21-11-2017 13:00:00 | 10.60°C | Calma |0.00 km/h | 40.00% | 936.60 hPa
  • 21-11-2017 12:00:00 | 6.20°C | Sudeste |2.00 km/h | 51.00% | 937.60 hPa
  • 21-11-2017 11:00:00 | 3.00°C | Este |3.00 km/h | 61.00% | 937.80 hPa
  • 21-11-2017 10:00:00 | 0.20°C | Calma |0.00 km/h | 71.00% | 937.90 hPa